sensor_id;sensor_type;location;lat;lon;timestamp;P1;durP1;ratioP1;P2;durP2;ratioP2
8331;SDS011;4203;48.144;14.118;2023-09-19T00:00:17;1.73;;;0.93;;
8331;SDS011;4203;48.144;14.118;2023-09-19T00:02:45;1.02;;;0.98;;
8331;SDS011;4203;48.144;14.118;2023-09-19T00:05:18;1.75;;;1.00;;
8331;SDS011;4203;48.144;14.118;2023-09-19T00:07:49;1.27;;;1.10;;
8331;SDS011;4203;48.144;14.118;2023-09-19T00:10:19;1.15;;;0.90;;
8331;SDS011;4203;48.144;14.118;2023-09-19T00:12:49;1.05;;;1.05;;
8331;SDS011;4203;48.144;14.118;2023-09-19T00:15:20;0.70;;;0.70;;
8331;SDS011;4203;48.144;14.118;2023-09-19T00:17:47;1.70;;;1.20;;
8331;SDS011;4203;48.144;14.118;2023-09-19T00:20:17;0.80;;;0.80;;
8331;SDS011;4203;48.144;14.118;2023-09-19T00:22:46;2.88;;;0.88;;
8331;SDS011;4203;48.144;14.118;2023-09-19T00:25:14;0.77;;;0.77;;
8331;SDS011;4203;48.144;14.118;2023-09-19T00:27:41;0.60;;;0.60;;
8331;SDS011;4203;48.144;14.118;2023-09-19T00:30:12;1.10;;;1.08;;
8331;SDS011;4203;48.144;14.118;2023-09-19T00:32:45;2.15;;;0.80;;
8331;SDS011;4203;48.144;14.118;2023-09-19T00:35:12;1.17;;;0.80;;
8331;SDS011;4203;48.144;14.118;2023-09-19T00:37:40;1.55;;;0.80;;
8331;SDS011;4203;48.144;14.118;2023-09-19T00:40:08;0.82;;;0.80;;
8331;SDS011;4203;48.144;14.118;2023-09-19T00:42:37;1.38;;;0.80;;
8331;SDS011;4203;48.144;14.118;2023-09-19T00:45:06;3.03;;;1.00;;
8331;SDS011;4203;48.144;14.118;2023-09-19T00:47:37;1.75;;;0.80;;
8331;SDS011;4203;48.144;14.118;2023-09-19T00:50:06;3.70;;;1.08;;
8331;SDS011;4203;48.144;14.118;2023-09-19T00:52:37;0.80;;;0.80;;
8331;SDS011;4203;48.144;14.118;2023-09-19T00:55:05;1.33;;;1.05;;
8331;SDS011;4203;48.144;14.118;2023-09-19T00:57:33;4.63;;;1.42;;
8331;SDS011;4203;48.144;14.118;2023-09-19T01:00:03;0.80;;;0.80;;
8331;SDS011;4203;48.144;14.118;2023-09-19T01:02:32;1.77;;;1.20;;
8331;SDS011;4203;48.144;14.118;2023-09-19T01:05:01;0.73;;;0.73;;
8331;SDS011;4203;48.144;14.118;2023-09-19T01:07:29;1.08;;;0.85;;
8331;SDS011;4203;48.144;14.118;2023-09-19T01:09:58;1.33;;;1.02;;
8331;SDS011;4203;48.144;14.118;2023-09-19T01:12:29;4.43;;;1.10;;
8331;SDS011;4203;48.144;14.118;2023-09-19T01:15:04;4.72;;;1.30;;
8331;SDS011;4203;48.144;14.118;2023-09-19T01:17:40;1.02;;;1.02;;
8331;SDS011;4203;48.144;14.118;2023-09-19T01:20:17;2.38;;;1.80;;
8331;SDS011;4203;48.144;14.118;2023-09-19T01:23:01;1.40;;;1.30;;
8331;SDS011;4203;48.144;14.118;2023-09-19T01:28:34;2.47;;;1.00;;
8331;SDS011;4203;48.144;14.118;2023-09-19T01:31:13;3.30;;;1.15;;
8331;SDS011;4203;48.144;14.118;2023-09-19T01:36:29;3.03;;;0.95;;
8331;SDS011;4203;48.144;14.118;2023-09-19T01:38:59;1.90;;;1.42;;
8331;SDS011;4203;48.144;14.118;2023-09-19T01:41:38;2.50;;;1.23;;
8331;SDS011;4203;48.144;14.118;2023-09-19T01:44:23;2.70;;;1.30;;
8331;SDS011;4203;48.144;14.118;2023-09-19T01:47:00;2.80;;;1.42;;
8331;SDS011;4203;48.144;14.118;2023-09-19T01:49:37;4.13;;;1.80;;
8331;SDS011;4203;48.144;14.118;2023-09-19T01:52:12;1.27;;;1.17;;
8331;SDS011;4203;48.144;14.118;2023-09-19T01:54:46;1.20;;;1.05;;
8331;SDS011;4203;48.144;14.118;2023-09-19T01:57:19;2.95;;;1.20;;
8331;SDS011;4203;48.144;14.118;2023-09-19T01:59:54;1.10;;;1.10;;
8331;SDS011;4203;48.144;14.118;2023-09-19T02:02:32;2.15;;;1.17;;
8331;SDS011;4203;48.144;14.118;2023-09-19T02:05:01;2.35;;;1.45;;
8331;SDS011;4203;48.144;14.118;2023-09-19T02:07:29;1.50;;;1.40;;
8331;SDS011;4203;48.144;14.118;2023-09-19T02:09:57;0.82;;;0.82;;
8331;SDS011;4203;48.144;14.118;2023-09-19T02:12:24;1.60;;;1.30;;
8331;SDS011;4203;48.144;14.118;2023-09-19T02:14:53;1.85;;;1.30;;
8331;SDS011;4203;48.144;14.118;2023-09-19T02:17:21;1.10;;;1.10;;
8331;SDS011;4203;48.144;14.118;2023-09-19T02:19:52;2.25;;;1.33;;
8331;SDS011;4203;48.144;14.118;2023-09-19T02:22:20;1.73;;;1.48;;
8331;SDS011;4203;48.144;14.118;2023-09-19T02:24:47;2.72;;;1.33;;
8331;SDS011;4203;48.144;14.118;2023-09-19T02:27:16;1.27;;;1.10;;
8331;SDS011;4203;48.144;14.118;2023-09-19T02:29:43;1.77;;;1.65;;
8331;SDS011;4203;48.144;14.118;2023-09-19T02:32:10;1.38;;;1.20;;
8331;SDS011;4203;48.144;14.118;2023-09-19T02:34:37;6.50;;;1.40;;
8331;SDS011;4203;48.144;14.118;2023-09-19T02:37:06;1.85;;;1.20;;
8331;SDS011;4203;48.144;14.118;2023-09-19T02:39:34;5.53;;;1.10;;
8331;SDS011;4203;48.144;14.118;2023-09-19T02:42:02;2.60;;;1.10;;
8331;SDS011;4203;48.144;14.118;2023-09-19T02:44:30;3.03;;;1.38;;
8331;SDS011;4203;48.144;14.118;2023-09-19T02:46:59;2.50;;;1.20;;
8331;SDS011;4203;48.144;14.118;2023-09-19T02:49:26;2.50;;;1.25;;
8331;SDS011;4203;48.144;14.118;2023-09-19T02:51:54;0.95;;;0.93;;
8331;SDS011;4203;48.144;14.118;2023-09-19T02:54:25;1.25;;;1.20;;
8331;SDS011;4203;48.144;14.118;2023-09-19T02:56:53;1.25;;;1.15;;
8331;SDS011;4203;48.144;14.118;2023-09-19T02:59:20;1.67;;;1.52;;
8331;SDS011;4203;48.144;14.118;2023-09-19T03:01:50;4.35;;;1.23;;
8331;SDS011;4203;48.144;14.118;2023-09-19T03:04:19;1.30;;;1.20;;
8331;SDS011;4203;48.144;14.118;2023-09-19T03:06:47;0.98;;;0.93;;
8331;SDS011;4203;48.144;14.118;2023-09-19T03:09:16;1.27;;;1.17;;
8331;SDS011;4203;48.144;14.118;2023-09-19T03:11:45;1.10;;;1.08;;
8331;SDS011;4203;48.144;14.118;2023-09-19T03:14:13;1.45;;;1.30;;
8331;SDS011;4203;48.144;14.118;2023-09-19T03:16:41;4.78;;;1.52;;
8331;SDS011;4203;48.144;14.118;2023-09-19T03:19:09;1.38;;;1.20;;
8331;SDS011;4203;48.144;14.118;2023-09-19T03:21:37;3.60;;;1.35;;
8331;SDS011;4203;48.144;14.118;2023-09-19T03:24:04;1.30;;;1.30;;
8331;SDS011;4203;48.144;14.118;2023-09-19T03:26:32;1.83;;;1.17;;
8331;SDS011;4203;48.144;14.118;2023-09-19T03:29:04;1.23;;;1.23;;
8331;SDS011;4203;48.144;14.118;2023-09-19T03:31:33;1.85;;;1.50;;
8331;SDS011;4203;48.144;14.118;2023-09-19T03:34:03;1.67;;;1.58;;
8331;SDS011;4203;48.144;14.118;2023-09-19T03:36:30;2.67;;;1.30;;
8331;SDS011;4203;48.144;14.118;2023-09-19T03:39:00;1.40;;;1.30;;
8331;SDS011;4203;48.144;14.118;2023-09-19T03:41:30;1.35;;;1.23;;
8331;SDS011;4203;48.144;14.118;2023-09-19T03:43:59;1.52;;;1.40;;
8331;SDS011;4203;48.144;14.118;2023-09-19T03:46:28;1.25;;;1.25;;
8331;SDS011;4203;48.144;14.118;2023-09-19T03:48:55;2.42;;;1.60;;
8331;SDS011;4203;48.144;14.118;2023-09-19T03:51:22;2.15;;;1.35;;
8331;SDS011;4203;48.144;14.118;2023-09-19T03:53:49;1.25;;;1.20;;
8331;SDS011;4203;48.144;14.118;2023-09-19T03:56:16;3.90;;;1.70;;
8331;SDS011;4203;48.144;14.118;2023-09-19T03:58:44;2.03;;;1.38;;
8331;SDS011;4203;48.144;14.118;2023-09-19T04:01:11;2.38;;;1.30;;
8331;SDS011;4203;48.144;14.118;2023-09-19T04:03:40;1.35;;;1.30;;
8331;SDS011;4203;48.144;14.118;2023-09-19T04:06:13;1.85;;;1.60;;
8331;SDS011;4203;48.144;14.118;2023-09-19T04:08:41;1.63;;;1.52;;
8331;SDS011;4203;48.144;14.118;2023-09-19T04:11:09;1.60;;;1.35;;
8331;SDS011;4203;48.144;14.118;2023-09-19T04:13:36;2.70;;;1.52;;
8331;SDS011;4203;48.144;14.118;2023-09-19T04:16:03;1.10;;;1.00;;
8331;SDS011;4203;48.144;14.118;2023-09-19T04:18:31;1.50;;;1.40;;
8331;SDS011;4203;48.144;14.118;2023-09-19T04:21:03;1.33;;;1.30;;
8331;SDS011;4203;48.144;14.118;2023-09-19T04:23:31;1.70;;;1.60;;
8331;SDS011;4203;48.144;14.118;2023-09-19T04:25:58;2.05;;;1.30;;
8331;SDS011;4203;48.144;14.118;2023-09-19T04:28:25;1.45;;;1.35;;
8331;SDS011;4203;48.144;14.118;2023-09-19T04:30:53;1.55;;;1.45;;
8331;SDS011;4203;48.144;14.118;2023-09-19T04:33:20;2.83;;;1.20;;
8331;SDS011;4203;48.144;14.118;2023-09-19T04:35:48;7.10;;;1.63;;
8331;SDS011;4203;48.144;14.118;2023-09-19T04:38:18;1.63;;;1.40;;
8331;SDS011;4203;48.144;14.118;2023-09-19T04:40:45;1.52;;;1.42;;
8331;SDS011;4203;48.144;14.118;2023-09-19T04:43:12;1.20;;;1.20;;
8331;SDS011;4203;48.144;14.118;2023-09-19T04:45:40;1.88;;;1.77;;
8331;SDS011;4203;48.144;14.118;2023-09-19T04:48:07;2.15;;;1.40;;
8331;SDS011;4203;48.144;14.118;2023-09-19T04:50:36;1.42;;;1.20;;
8331;SDS011;4203;48.144;14.118;2023-09-19T04:53:03;1.42;;;1.33;;
8331;SDS011;4203;48.144;14.118;2023-09-19T04:55:33;1.38;;;1.27;;
8331;SDS011;4203;48.144;14.118;2023-09-19T04:58:01;1.48;;;1.40;;
8331;SDS011;4203;48.144;14.118;2023-09-19T05:00:29;1.50;;;1.40;;
8331;SDS011;4203;48.144;14.118;2023-09-19T05:03:00;1.40;;;1.40;;
8331;SDS011;4203;48.144;14.118;2023-09-19T05:05:29;1.83;;;1.50;;
8331;SDS011;4203;48.144;14.118;2023-09-19T05:07:56;1.60;;;1.50;;
8331;SDS011;4203;48.144;14.118;2023-09-19T05:10:24;1.33;;;1.15;;
8331;SDS011;4203;48.144;14.118;2023-09-19T05:12:54;4.18;;;1.30;;
8331;SDS011;4203;48.144;14.118;2023-09-19T05:15:21;2.67;;;1.55;;
8331;SDS011;4203;48.144;14.118;2023-09-19T05:17:48;1.38;;;1.20;;
8331;SDS011;4203;48.144;14.118;2023-09-19T05:20:17;1.45;;;1.35;;
8331;SDS011;4203;48.144;14.118;2023-09-19T05:22:50;2.35;;;1.50;;
8331;SDS011;4203;48.144;14.118;2023-09-19T05:25:23;1.00;;;0.98;;
8331;SDS011;4203;48.144;14.118;2023-09-19T05:27:54;2.53;;;1.70;;
8331;SDS011;4203;48.144;14.118;2023-09-19T05:30:22;1.75;;;1.38;;
8331;SDS011;4203;48.144;14.118;2023-09-19T05:32:50;1.33;;;1.23;;
8331;SDS011;4203;48.144;14.118;2023-09-19T05:35:17;1.45;;;1.35;;
8331;SDS011;4203;48.144;14.118;2023-09-19T05:37:46;1.40;;;1.40;;
8331;SDS011;4203;48.144;14.118;2023-09-19T05:40:16;1.80;;;1.60;;
8331;SDS011;4203;48.144;14.118;2023-09-19T05:42:43;1.83;;;1.63;;
8331;SDS011;4203;48.144;14.118;2023-09-19T05:45:12;1.53;;;1.43;;
8331;SDS011;4203;48.144;14.118;2023-09-19T05:47:44;1.50;;;1.40;;
8331;SDS011;4203;48.144;14.118;2023-09-19T05:50:12;1.50;;;1.40;;
8331;SDS011;4203;48.144;14.118;2023-09-19T05:52:40;1.33;;;1.33;;
8331;SDS011;4203;48.144;14.118;2023-09-19T05:55:09;2.15;;;1.58;;
8331;SDS011;4203;48.144;14.118;2023-09-19T05:57:36;5.32;;;1.60;;
8331;SDS011;4203;48.144;14.118;2023-09-19T06:00:05;1.40;;;1.25;;
8331;SDS011;4203;48.144;14.118;2023-09-19T06:02:37;2.47;;;1.50;;
8331;SDS011;4203;48.144;14.118;2023-09-19T06:05:06;3.47;;;1.55;;
8331;SDS011;4203;48.144;14.118;2023-09-19T06:07:35;1.13;;;1.13;;
8331;SDS011;4203;48.144;14.118;2023-09-19T06:10:03;1.30;;;1.30;;
8331;SDS011;4203;48.144;14.118;2023-09-19T06:12:32;2.50;;;1.40;;
8331;SDS011;4203;48.144;14.118;2023-09-19T06:15:02;3.50;;;1.67;;
8331;SDS011;4203;48.144;14.118;2023-09-19T06:17:33;1.85;;;1.50;;
8331;SDS011;4203;48.144;14.118;2023-09-19T06:20:05;2.42;;;1.05;;
8331;SDS011;4203;48.144;14.118;2023-09-19T06:22:38;1.42;;;1.30;;
8331;SDS011;4203;48.144;14.118;2023-09-19T06:25:07;1.95;;;1.30;;
8331;SDS011;4203;48.144;14.118;2023-09-19T06:27:36;1.70;;;1.60;;
8331;SDS011;4203;48.144;14.118;2023-09-19T06:30:05;2.88;;;1.63;;
8331;SDS011;4203;48.144;14.118;2023-09-19T06:32:33;1.23;;;1.23;;
8331;SDS011;4203;48.144;14.118;2023-09-19T06:35:01;1.63;;;1.20;;
8331;SDS011;4203;48.144;14.118;2023-09-19T06:37:29;1.35;;;1.25;;
8331;SDS011;4203;48.144;14.118;2023-09-19T06:39:58;2.78;;;1.20;;
8331;SDS011;4203;48.144;14.118;2023-09-19T06:42:25;6.38;;;1.27;;
8331;SDS011;4203;48.144;14.118;2023-09-19T06:44:53;1.20;;;1.20;;
8331;SDS011;4203;48.144;14.118;2023-09-19T06:47:21;1.40;;;1.30;;
8331;SDS011;4203;48.144;14.118;2023-09-19T06:49:51;1.38;;;1.27;;
8331;SDS011;4203;48.144;14.118;2023-09-19T06:52:18;1.65;;;1.40;;
8331;SDS011;4203;48.144;14.118;2023-09-19T06:54:48;1.10;;;1.10;;
8331;SDS011;4203;48.144;14.118;2023-09-19T06:57:17;1.20;;;1.10;;
8331;SDS011;4203;48.144;14.118;2023-09-19T06:59:45;1.60;;;1.10;;
8331;SDS011;4203;48.144;14.118;2023-09-19T07:02:12;1.35;;;1.35;;
8331;SDS011;4203;48.144;14.118;2023-09-19T07:04:40;1.60;;;1.50;;
8331;SDS011;4203;48.144;14.118;2023-09-19T07:07:07;3.15;;;1.30;;
8331;SDS011;4203;48.144;14.118;2023-09-19T07:09:35;1.70;;;1.50;;
8331;SDS011;4203;48.144;14.118;2023-09-19T07:12:05;1.55;;;1.30;;
8331;SDS011;4203;48.144;14.118;2023-09-19T07:14:32;1.58;;;1.40;;
8331;SDS011;4203;48.144;14.118;2023-09-19T07:17:00;1.50;;;1.40;;
8331;SDS011;4203;48.144;14.118;2023-09-19T07:19:28;1.55;;;1.40;;
8331;SDS011;4203;48.144;14.118;2023-09-19T07:21:56;1.80;;;1.70;;
8331;SDS011;4203;48.144;14.118;2023-09-19T07:24:24;1.63;;;1.50;;
8331;SDS011;4203;48.144;14.118;2023-09-19T07:26:53;1.73;;;1.20;;
8331;SDS011;4203;48.144;14.118;2023-09-19T07:29:22;1.35;;;1.20;;
8331;SDS011;4203;48.144;14.118;2023-09-19T07:31:51;2.05;;;1.20;;
8331;SDS011;4203;48.144;14.118;2023-09-19T07:34:19;1.60;;;1.52;;
8331;SDS011;4203;48.144;14.118;2023-09-19T07:36:48;2.08;;;1.13;;
8331;SDS011;4203;48.144;14.118;2023-09-19T07:39:15;2.22;;;1.33;;
8331;SDS011;4203;48.144;14.118;2023-09-19T07:41:42;1.20;;;1.20;;
8331;SDS011;4203;48.144;14.118;2023-09-19T07:44:09;1.30;;;1.20;;
8331;SDS011;4203;48.144;14.118;2023-09-19T07:46:38;3.42;;;1.45;;
8331;SDS011;4203;48.144;14.118;2023-09-19T07:49:06;1.20;;;1.20;;
8331;SDS011;4203;48.144;14.118;2023-09-19T07:51:33;1.27;;;1.20;;
8331;SDS011;4203;48.144;14.118;2023-09-19T07:54:02;1.17;;;1.17;;
8331;SDS011;4203;48.144;14.118;2023-09-19T07:56:29;3.53;;;1.33;;
8331;SDS011;4203;48.144;14.118;2023-09-19T07:58:57;1.85;;;1.20;;
8331;SDS011;4203;48.144;14.118;2023-09-19T08:01:24;1.15;;;1.13;;
8331;SDS011;4203;48.144;14.118;2023-09-19T08:03:53;1.42;;;1.33;;
8331;SDS011;4203;48.144;14.118;2023-09-19T08:06:21;1.40;;;1.30;;
8331;SDS011;4203;48.144;14.118;2023-09-19T08:08:50;3.05;;;1.40;;
8331;SDS011;4203;48.144;14.118;2023-09-19T08:11:20;1.45;;;1.35;;
8331;SDS011;4203;48.144;14.118;2023-09-19T08:13:49;1.70;;;1.02;;
8331;SDS011;4203;48.144;14.118;2023-09-19T08:16:17;1.33;;;1.23;;
8331;SDS011;4203;48.144;14.118;2023-09-19T08:18:47;1.60;;;1.50;;
8331;SDS011;4203;48.144;14.118;2023-09-19T08:21:21;1.30;;;1.20;;
8331;SDS011;4203;48.144;14.118;2023-09-19T08:23:49;2.95;;;1.20;;
8331;SDS011;4203;48.144;14.118;2023-09-19T08:26:16;1.98;;;1.38;;
8331;SDS011;4203;48.144;14.118;2023-09-19T08:28:44;1.95;;;1.02;;
8331;SDS011;4203;48.144;14.118;2023-09-19T08:31:13;3.08;;;1.30;;
8331;SDS011;4203;48.144;14.118;2023-09-19T08:33:42;2.03;;;1.42;;
8331;SDS011;4203;48.144;14.118;2023-09-19T08:36:16;2.78;;;1.55;;
8331;SDS011;4203;48.144;14.118;2023-09-19T08:38:45;1.25;;;1.25;;
8331;SDS011;4203;48.144;14.118;2023-09-19T08:41:12;1.23;;;1.20;;
8331;SDS011;4203;48.144;14.118;2023-09-19T08:43:39;2.53;;;1.52;;
8331;SDS011;4203;48.144;14.118;2023-09-19T08:46:09;1.23;;;1.23;;
8331;SDS011;4203;48.144;14.118;2023-09-19T08:48:39;1.95;;;1.17;;
8331;SDS011;4203;48.144;14.118;2023-09-19T08:51:16;1.73;;;1.15;;
8331;SDS011;4203;48.144;14.118;2023-09-19T08:53:50;0.98;;;0.98;;
8331;SDS011;4203;48.144;14.118;2023-09-19T08:56:19;1.42;;;1.33;;
8331;SDS011;4203;48.144;14.118;2023-09-19T08:58:50;1.00;;;0.90;;
8331;SDS011;4203;48.144;14.118;2023-09-19T09:01:20;1.25;;;1.20;;
8331;SDS011;4203;48.144;14.118;2023-09-19T09:03:50;3.50;;;1.10;;
8331;SDS011;4203;48.144;14.118;2023-09-19T09:06:18;0.90;;;0.90;;
8331;SDS011;4203;48.144;14.118;2023-09-19T09:08:46;1.40;;;1.02;;
8331;SDS011;4203;48.144;14.118;2023-09-19T09:11:16;0.93;;;0.80;;
8331;SDS011;4203;48.144;14.118;2023-09-19T09:13:44;0.90;;;0.90;;
8331;SDS011;4203;48.144;14.118;2023-09-19T09:16:11;2.35;;;1.38;;
8331;SDS011;4203;48.144;14.118;2023-09-19T09:18:39;3.03;;;1.20;;
8331;SDS011;4203;48.144;14.118;2023-09-19T09:21:06;1.00;;;0.90;;
8331;SDS011;4203;48.144;14.118;2023-09-19T09:23:33;2.25;;;1.20;;
8331;SDS011;4203;48.144;14.118;2023-09-19T09:26:02;0.93;;;0.93;;
8331;SDS011;4203;48.144;14.118;2023-09-19T09:28:31;1.35;;;1.25;;
8331;SDS011;4203;48.144;14.118;2023-09-19T09:31:00;1.02;;;1.00;;
8331;SDS011;4203;48.144;14.118;2023-09-19T09:33:33;1.08;;;1.08;;
8331;SDS011;4203;48.144;14.118;2023-09-19T09:36:01;1.20;;;1.10;;
8331;SDS011;4203;48.144;14.118;2023-09-19T09:38:42;1.13;;;1.13;;
8331;SDS011;4203;48.144;14.118;2023-09-19T09:41:13;1.65;;;1.33;;
8331;SDS011;4203;48.144;14.118;2023-09-19T09:43:52;1.10;;;1.10;;
8331;SDS011;4203;48.144;14.118;2023-09-19T09:46:20;0.90;;;0.90;;
8331;SDS011;4203;48.144;14.118;2023-09-19T09:49:05;1.23;;;0.90;;
8331;SDS011;4203;48.144;14.118;2023-09-19T09:51:50;3.45;;;1.30;;
8331;SDS011;4203;48.144;14.118;2023-09-19T09:54:25;1.75;;;1.08;;
8331;SDS011;4203;48.144;14.118;2023-09-19T09:57:04;1.42;;;1.30;;
8331;SDS011;4203;48.144;14.118;2023-09-19T09:59:48;1.38;;;1.27;;
8331;SDS011;4203;48.144;14.118;2023-09-19T10:02:18;1.27;;;1.17;;
8331;SDS011;4203;48.144;14.118;2023-09-19T10:04:51;1.48;;;1.13;;
8331;SDS011;4203;48.144;14.118;2023-09-19T10:07:27;0.90;;;0.90;;
8331;SDS011;4203;48.144;14.118;2023-09-19T10:09:58;1.45;;;0.90;;
8331;SDS011;4203;48.144;14.118;2023-09-19T10:12:37;1.15;;;0.88;;
8331;SDS011;4203;48.144;14.118;2023-09-19T10:15:08;0.95;;;0.95;;
8331;SDS011;4203;48.144;14.118;2023-09-19T10:17:42;0.90;;;0.90;;
8331;SDS011;4203;48.144;14.118;2023-09-19T10:20:14;1.67;;;0.95;;
8331;SDS011;4203;48.144;14.118;2023-09-19T10:22:59;2.58;;;1.20;;
8331;SDS011;4203;48.144;14.118;2023-09-19T10:25:27;1.00;;;1.00;;
8331;SDS011;4203;48.144;14.118;2023-09-19T10:27:57;1.67;;;1.10;;
8331;SDS011;4203;48.144;14.118;2023-09-19T10:30:29;1.00;;;1.00;;
8331;SDS011;4203;48.144;14.118;2023-09-19T10:33:00;0.98;;;0.90;;
8331;SDS011;4203;48.144;14.118;2023-09-19T10:35:28;2.47;;;1.58;;
8331;SDS011;4203;48.144;14.118;2023-09-19T10:37:57;1.05;;;0.90;;
8331;SDS011;4203;48.144;14.118;2023-09-19T10:40:26;3.65;;;1.25;;
8331;SDS011;4203;48.144;14.118;2023-09-19T10:43:00;1.25;;;1.15;;
8331;SDS011;4203;48.144;14.118;2023-09-19T10:45:30;1.13;;;1.08;;
8331;SDS011;4203;48.144;14.118;2023-09-19T10:47:58;0.90;;;0.90;;
8331;SDS011;4203;48.144;14.118;2023-09-19T10:50:27;0.90;;;0.90;;
8331;SDS011;4203;48.144;14.118;2023-09-19T10:52:59;1.65;;;0.70;;
8331;SDS011;4203;48.144;14.118;2023-09-19T10:55:30;2.75;;;0.70;;
8331;SDS011;4203;48.144;14.118;2023-09-19T10:58:02;1.60;;;0.85;;
8331;SDS011;4203;48.144;14.118;2023-09-19T11:00:51;1.08;;;0.95;;
8331;SDS011;4203;48.144;14.118;2023-09-19T11:03:21;0.70;;;0.70;;
8331;SDS011;4203;48.144;14.118;2023-09-19T11:06:11;0.80;;;0.80;;
8331;SDS011;4203;48.144;14.118;2023-09-19T11:08:51;0.90;;;0.90;;
8331;SDS011;4203;48.144;14.118;2023-09-19T11:11:44;1.05;;;1.00;;
8331;SDS011;4203;48.144;14.118;2023-09-19T11:14:38;1.10;;;1.00;;
8331;SDS011;4203;48.144;14.118;2023-09-19T11:20:18;2.47;;;1.10;;
8331;SDS011;4203;48.144;14.118;2023-09-19T11:23:21;1.58;;;1.10;;
8331;SDS011;4203;48.144;14.118;2023-09-19T11:25:54;3.70;;;0.85;;
8331;SDS011;4203;48.144;14.118;2023-09-19T11:28:28;1.23;;;0.95;;
8331;SDS011;4203;48.144;14.118;2023-09-19T11:31:40;0.88;;;0.88;;
8331;SDS011;4203;48.144;14.118;2023-09-19T11:34:43;0.88;;;0.88;;
8331;SDS011;4203;48.144;14.118;2023-09-19T11:40:44;1.00;;;1.00;;
8331;SDS011;4203;48.144;14.118;2023-09-19T11:43:30;1.80;;;0.90;;
8331;SDS011;4203;48.144;14.118;2023-09-19T11:46:07;0.80;;;0.77;;
8331;SDS011;4203;48.144;14.118;2023-09-19T11:48:34;0.75;;;0.75;;
8331;SDS011;4203;48.144;14.118;2023-09-19T11:51:10;0.95;;;0.95;;
8331;SDS011;4203;48.144;14.118;2023-09-19T11:53:45;0.80;;;0.80;;
8331;SDS011;4203;48.144;14.118;2023-09-19T11:56:14;1.23;;;1.00;;
8331;SDS011;4203;48.144;14.118;2023-09-19T11:58:43;1.73;;;0.73;;
8331;SDS011;4203;48.144;14.118;2023-09-19T12:01:20;1.98;;;0.75;;
8331;SDS011;4203;48.144;14.118;2023-09-19T12:03:52;3.78;;;1.10;;
8331;SDS011;4203;48.144;14.118;2023-09-19T12:06:22;3.28;;;1.20;;
8331;SDS011;4203;48.144;14.118;2023-09-19T12:08:50;1.30;;;1.15;;
8331;SDS011;4203;48.144;14.118;2023-09-19T12:11:19;2.08;;;0.82;;
8331;SDS011;4203;48.144;14.118;2023-09-19T12:13:49;1.48;;;1.00;;
8331;SDS011;4203;48.144;14.118;2023-09-19T12:16:20;2.25;;;0.95;;
8331;SDS011;4203;48.144;14.118;2023-09-19T12:18:48;1.08;;;0.95;;
8331;SDS011;4203;48.144;14.118;2023-09-19T12:21:23;1.20;;;1.20;;
8331;SDS011;4203;48.144;14.118;2023-09-19T12:26:44;0.70;;;0.70;;
8331;SDS011;4203;48.144;14.118;2023-09-19T12:29:13;0.82;;;0.80;;
8331;SDS011;4203;48.144;14.118;2023-09-19T12:31:52;1.80;;;0.90;;
8331;SDS011;4203;48.144;14.118;2023-09-19T12:34:23;1.58;;;1.08;;
8331;SDS011;4203;48.144;14.118;2023-09-19T12:37:09;1.60;;;1.00;;
8331;SDS011;4203;48.144;14.118;2023-09-19T12:39:48;0.93;;;0.93;;
8331;SDS011;4203;48.144;14.118;2023-09-19T12:42:16;1.20;;;0.77;;
8331;SDS011;4203;48.144;14.118;2023-09-19T12:44:46;0.63;;;0.60;;
8331;SDS011;4203;48.144;14.118;2023-09-19T12:47:19;0.70;;;0.70;;
8331;SDS011;4203;48.144;14.118;2023-09-19T12:52:40;0.90;;;0.90;;
8331;SDS011;4203;48.144;14.118;2023-09-19T12:55:19;0.80;;;0.77;;
8331;SDS011;4203;48.144;14.118;2023-09-19T12:58:01;0.68;;;0.60;;
8331;SDS011;4203;48.144;14.118;2023-09-19T13:00:35;0.70;;;0.70;;
8331;SDS011;4203;48.144;14.118;2023-09-19T13:03:15;0.65;;;0.65;;
8331;SDS011;4203;48.144;14.118;2023-09-19T13:05:53;0.47;;;0.47;;
8331;SDS011;4203;48.144;14.118;2023-09-19T13:08:26;0.57;;;0.57;;
8331;SDS011;4203;48.144;14.118;2023-09-19T13:11:04;0.40;;;0.40;;
8331;SDS011;4203;48.144;14.118;2023-09-19T13:13:35;0.70;;;0.70;;
8331;SDS011;4203;48.144;14.118;2023-09-19T13:16:03;0.40;;;0.40;;
8331;SDS011;4203;48.144;14.118;2023-09-19T13:18:42;0.57;;;0.57;;
8331;SDS011;4203;48.144;14.118;2023-09-19T13:21:16;0.65;;;0.65;;
8331;SDS011;4203;48.144;14.118;2023-09-19T13:23:54;1.10;;;0.95;;
8331;SDS011;4203;48.144;14.118;2023-09-19T13:26:24;0.65;;;0.65;;
8331;SDS011;4203;48.144;14.118;2023-09-19T13:28:53;0.60;;;0.60;;
8331;SDS011;4203;48.144;14.118;2023-09-19T13:31:20;0.75;;;0.75;;
8331;SDS011;4203;48.144;14.118;2023-09-19T13:33:50;1.67;;;0.63;;
8331;SDS011;4203;48.144;14.118;2023-09-19T13:36:17;1.75;;;0.70;;
8331;SDS011;4203;48.144;14.118;2023-09-19T13:38:44;0.60;;;0.60;;
8331;SDS011;4203;48.144;14.118;2023-09-19T13:41:14;0.60;;;0.60;;
8331;SDS011;4203;48.144;14.118;2023-09-19T13:43:41;1.65;;;0.60;;
8331;SDS011;4203;48.144;14.118;2023-09-19T13:46:13;0.45;;;0.45;;
8331;SDS011;4203;48.144;14.118;2023-09-19T13:48:41;2.28;;;0.50;;
8331;SDS011;4203;48.144;14.118;2023-09-19T13:51:10;0.90;;;0.60;;
8331;SDS011;4203;48.144;14.118;2023-09-19T13:53:37;0.50;;;0.50;;
8331;SDS011;4203;48.144;14.118;2023-09-19T13:56:04;1.00;;;0.65;;
8331;SDS011;4203;48.144;14.118;2023-09-19T13:58:32;0.57;;;0.57;;
8331;SDS011;4203;48.144;14.118;2023-09-19T14:01:00;0.50;;;0.50;;
8331;SDS011;4203;48.144;14.118;2023-09-19T14:03:28;0.60;;;0.60;;
8331;SDS011;4203;48.144;14.118;2023-09-19T14:05:56;1.58;;;0.77;;
8331;SDS011;4203;48.144;14.118;2023-09-19T14:08:25;1.20;;;0.73;;
8331;SDS011;4203;48.144;14.118;2023-09-19T14:10:52;0.60;;;0.60;;
8331;SDS011;4203;48.144;14.118;2023-09-19T14:13:19;0.52;;;0.52;;
8331;SDS011;4203;48.144;14.118;2023-09-19T14:15:47;0.95;;;0.50;;
8331;SDS011;4203;48.144;14.118;2023-09-19T14:18:14;0.55;;;0.50;;
8331;SDS011;4203;48.144;14.118;2023-09-19T14:20:41;0.50;;;0.50;;
8331;SDS011;4203;48.144;14.118;2023-09-19T14:23:09;0.28;;;0.28;;
8331;SDS011;4203;48.144;14.118;2023-09-19T14:25:38;0.65;;;0.50;;
8331;SDS011;4203;48.144;14.118;2023-09-19T14:28:06;1.02;;;0.57;;
8331;SDS011;4203;48.144;14.118;2023-09-19T14:30:34;0.40;;;0.40;;
8331;SDS011;4203;48.144;14.118;2023-09-19T14:33:02;0.50;;;0.50;;
8331;SDS011;4203;48.144;14.118;2023-09-19T14:35:30;0.60;;;0.60;;
8331;SDS011;4203;48.144;14.118;2023-09-19T14:37:57;0.85;;;0.40;;
8331;SDS011;4203;48.144;14.118;2023-09-19T14:40:24;0.45;;;0.40;;
8331;SDS011;4203;48.144;14.118;2023-09-19T14:42:53;0.57;;;0.57;;
8331;SDS011;4203;48.144;14.118;2023-09-19T14:45:20;0.63;;;0.63;;
8331;SDS011;4203;48.144;14.118;2023-09-19T14:47:48;0.50;;;0.50;;
8331;SDS011;4203;48.144;14.118;2023-09-19T14:50:19;0.80;;;0.80;;
8331;SDS011;4203;48.144;14.118;2023-09-19T14:52:47;2.58;;;0.70;;
8331;SDS011;4203;48.144;14.118;2023-09-19T14:55:15;0.80;;;0.80;;
8331;SDS011;4203;48.144;14.118;2023-09-19T14:57:48;0.60;;;0.60;;
8331;SDS011;4203;48.144;14.118;2023-09-19T15:00:18;5.32;;;0.95;;
8331;SDS011;4203;48.144;14.118;2023-09-19T15:02:48;0.60;;;0.60;;
8331;SDS011;4203;48.144;14.118;2023-09-19T15:05:16;0.80;;;0.80;;
8331;SDS011;4203;48.144;14.118;2023-09-19T15:07:43;0.50;;;0.50;;
8331;SDS011;4203;48.144;14.118;2023-09-19T15:10:11;0.70;;;0.65;;
8331;SDS011;4203;48.144;14.118;2023-09-19T15:12:38;0.82;;;0.80;;
8331;SDS011;4203;48.144;14.118;2023-09-19T15:15:06;0.68;;;0.68;;
8331;SDS011;4203;48.144;14.118;2023-09-19T15:17:35;3.22;;;0.60;;
8331;SDS011;4203;48.144;14.118;2023-09-19T15:20:03;1.35;;;0.57;;
8331;SDS011;4203;48.144;14.118;2023-09-19T15:22:32;0.80;;;0.80;;
8331;SDS011;4203;48.144;14.118;2023-09-19T15:25:00;1.60;;;0.45;;
8331;SDS011;4203;48.144;14.118;2023-09-19T15:27:29;0.82;;;0.80;;
8331;SDS011;4203;48.144;14.118;2023-09-19T15:29:57;3.95;;;0.70;;
8331;SDS011;4203;48.144;14.118;2023-09-19T15:32:25;0.60;;;0.60;;
8331;SDS011;4203;48.144;14.118;2023-09-19T15:34:54;0.60;;;0.60;;
8331;SDS011;4203;48.144;14.118;2023-09-19T15:37:21;1.00;;;0.80;;